Curtis, Washington
Current Conditions -  °F | °C
As of 11:55 AM on Wednesday 17 Dec 2014 (Local Time) from KCLS Reporting Station
Broken Clouds Broken Clouds  
Wind Chill: 46°   Ceiling: 6000
Heat Index: 46°   Visibility: 10mi
Dew Point: 45°   Wind: 0mph
Humidity: 93%   Direction: NA
Pressure: 29.84"   Gusts: NA
Location:  46.52°N, 123.12°W
Report Text: KCLS 171955Z AUTO 00000KT 10SM SCT008 BKN060 08/07 A2984 RMK AO2
Loading
Personal Weather Stations






























Interactive Weather Map New forecast layout! Learn more

10-Day Weather Forecast

Advertisements
Track Severe Weather on mobile